Time;durP1;ratioP1;P1;durP2;ratioP2;P2;SDS_P1;SDS_P2;PMS_P1;PMS_P2;Temp;Humidity;BMP_temperature;BMP_pressure;BME280_temperature;BME280_humidity;BME280_pressure;Samples;Min_cycle;Max_cycle;Signal;HPM_P1;HPM_P2
2021/01/20 00:00:42;;;;;;;11.37;6.67;;;;;;;6.55;93.46;99573.09;5134762;27;20559;-52
2021/01/20 00:03:08;;;;;;;11.77;6.33;;;;;;;6.57;93.71;99575.75;5136445;28;20457;-56
2021/01/20 00:05:35;;;;;;;13.90;6.23;;;;;;;6.55;93.28;99562.84;5129914;28;20480;-56
2021/01/20 00:08:02;;;;;;;5.83;3.10;;;;;;;6.57;93.20;99570.63;5136226;28;20448;-54
2021/01/20 00:10:29;;;;;;;9.93;5.60;;;;;;;6.56;93.09;99563.75;5134540;28;20476;-56
2021/01/20 00:12:56;;;;;;;8.83;4.47;;;;;;;6.52;93.08;99567.88;5136428;28;20464;-52
2021/01/20 00:15:24;;;;;;;13.40;7.50;;;;;;;6.49;93.61;99560.06;5134258;28;20482;-56
2021/01/20 00:17:50;;;;;;;14.30;5.73;;;;;;;6.50;93.37;99561.78;5136092;28;21016;-55
2021/01/20 00:20:17;;;;;;;9.47;5.50;;;;;;;6.52;93.05;99564.44;5136830;27;20537;-54
2021/01/20 00:22:47;;;;;;;6.63;2.83;;;;;;;6.50;92.97;99564.34;5140132;27;20765;-53
2021/01/20 00:25:16;;;;;;;13.70;5.63;;;;;;;6.49;93.03;99567.75;5138023;27;20507;-59
2021/01/20 00:27:43;;;;;;;12.10;7.50;;;;;;;6.46;93.00;99562.50;5139708;27;20453;-55
2021/01/20 00:30:11;;;;;;;9.77;3.83;;;;;;;6.43;92.91;99562.38;5138164;27;20922;-60
2021/01/20 00:32:38;;;;;;;7.30;3.63;;;;;;;6.45;92.96;99571.00;5139602;27;20503;-51
2021/01/20 00:35:06;;;;;;;11.60;6.73;;;;;;;6.41;92.95;99553.75;5137722;27;20525;-57
2021/01/20 00:37:33;;;;;;;12.27;5.70;;;;;;;6.37;93.10;99552.78;5139641;27;20484;-51
2021/01/20 00:40:00;;;;;;;16.77;8.20;;;;;;;6.38;92.95;99563.88;5138186;27;20472;-54
2021/01/20 00:42:28;;;;;;;11.03;5.57;;;;;;;6.35;93.09;99559.50;5139816;27;21001;-58
2021/01/20 00:44:54;;;;;;;14.27;6.07;;;;;;;6.31;93.43;99553.38;5137348;27;20483;-55
2021/01/20 00:47:22;;;;;;;10.80;6.70;;;;;;;6.30;93.05;99561.88;5139188;27;20507;-55
2021/01/20 00:49:49;;;;;;;17.00;8.17;;;;;;;6.28;93.43;99560.97;5134340;27;20498;-55
2021/01/20 00:52:15;;;;;;;8.03;5.03;;;;;;;6.20;93.56;99564.88;5139934;27;20824;-58
2021/01/20 00:54:42;;;;;;;10.83;6.17;;;;;;;6.19;93.84;99558.03;5136838;27;20539;-55
2021/01/20 00:57:09;;;;;;;16.67;7.47;;;;;;;6.12;94.11;99553.47;5139542;27;20479;-55
2021/01/20 00:59:36;;;;;;;9.57;5.17;;;;;;;6.04;93.83;99559.16;5137658;27;20540;-50
2021/01/20 01:02:03;;;;;;;10.73;4.80;;;;;;;6.00;93.93;99557.25;5139479;27;20764;-52
2021/01/20 01:04:32;;;;;;;14.03;7.00;;;;;;;5.97;93.67;99557.13;5136875;27;20468;-55
2021/01/20 01:06:58;;;;;;;12.70;4.80;;;;;;;5.96;93.36;99560.50;5139276;27;20476;-55
2021/01/20 01:09:25;;;;;;;15.93;8.03;;;;;;;5.92;93.49;99553.50;5137633;27;20444;-53
2021/01/20 01:11:54;;;;;;;8.40;4.43;;;;;;;5.87;93.93;99555.00;5139244;27;20467;-54
2021/01/20 01:14:20;;;;;;;10.53;5.43;;;;;;;5.79;93.99;99550.44;5137284;27;20543;-56
2021/01/20 01:16:47;;;;;;;15.77;6.23;;;;;;;5.70;94.22;99559.41;5138953;27;20472;-52
2021/01/20 01:19:14;;;;;;;14.00;5.50;;;;;;;5.66;94.97;99555.84;5137693;27;20480;-54
2021/01/20 01:21:43;;;;;;;11.83;5.70;;;;;;;5.59;95.26;99543.59;5138432;27;20575;-58
2021/01/20 01:24:10;;;;;;;19.97;8.77;;;;;;;5.56;95.40;99546.00;5138657;27;20525;-59
2021/01/20 01:26:36;;;;;;;17.17;7.80;;;;;;;5.50;95.47;99539.81;5138307;27;20543;-52
2021/01/20 01:29:03;;;;;;;23.10;9.50;;;;;;;5.51;95.25;99546.72;5139055;27;20539;-57
2021/01/20 01:31:30;;;;;;;17.03;8.30;;;;;;;5.48;95.76;99555.94;5136057;27;20779;-51
2021/01/20 01:33:57;;;;;;;17.83;8.77;;;;;;;5.42;96.14;99546.31;5138548;27;20460;-55
2021/01/20 01:36:23;;;;;;;17.60;8.07;;;;;;;5.39;96.23;99536.81;5137047;27;20507;-60
2021/01/20 01:38:52;;;;;;;20.40;8.77;;;;;;;5.33;96.30;99535.69;5138725;27;20483;-56
2021/01/20 01:41:18;;;;;;;20.47;9.10;;;;;;;5.30;96.23;99540.66;5136691;27;20496;-57
2021/01/20 01:43:55;;;;;;;21.53;9.27;;;;;;;5.27;95.77;99532.06;5138018;27;20504;-55
2021/01/20 01:46:22;;;;;;;26.03;11.20;;;;;;;5.32;95.16;99526.28;5136402;27;20483;-54
2021/01/20 01:48:49;;;;;;;22.73;10.93;;;;;;;5.32;94.67;99534.81;5138519;27;20454;-53
2021/01/20 01:51:15;;;;;;;22.93;11.33;;;;;;;5.31;94.42;99527.06;5136602;27;20503;-54
2021/01/20 01:53:42;;;;;;;21.10;11.10;;;;;;;5.27;94.27;99524.38;5138645;27;20517;-57
2021/01/20 01:56:10;;;;;;;14.13;7.30;;;;;;;5.33;93.70;99526.31;5135975;27;20480;-59
2021/01/20 01:58:36;;;;;;;15.47;6.40;;;;;;;5.35;93.39;99528.94;5137466;27;20572;-57
2021/01/20 02:01:03;;;;;;;17.17;7.93;;;;;;;5.30;93.95;99525.31;5136410;27;20472;-59
2021/01/20 02:03:30;;;;;;;24.97;12.07;;;;;;;5.27;93.76;99520.94;5138427;27;20873;-58
2021/01/20 02:05:57;;;;;;;15.63;8.40;;;;;;;5.22;94.22;99523.28;5136022;27;20957;-54
2021/01/20 02:08:23;;;;;;;24.77;10.60;;;;;;;5.21;94.65;99518.09;5138273;27;20485;-53
2021/01/20 02:10:52;;;;;;;29.53;13.97;;;;;;;5.21;95.10;99520.66;5137083;27;20483;-55
2021/01/20 02:13:27;;;;;;;27.07;10.23;;;;;;;5.15;94.77;99513.63;5138032;27;20466;-55
2021/01/20 02:15:58;;;;;;;23.00;9.23;;;;;;;5.11;95.05;99519.38;5131021;27;20483;-55
2021/01/20 02:18:27;;;;;;;18.60;10.13;;;;;;;5.07;94.82;99517.53;5138168;27;21007;-50
2021/01/20 02:21:26;;;;;;;18.77;8.60;;;;;;;5.02;95.13;99512.19;5135931;27;20559;-60
2021/01/20 02:23:56;;;;;;;43.10;18.40;;;;;;;5.03;95.25;99515.63;5137931;27;20492;-59
2021/01/20 02:26:28;;;;;;;28.63;14.40;;;;;;;5.02;95.28;99509.63;5135966;27;20567;-53
2021/01/20 02:29:10;;;;;;;21.80;8.97;;;;;;;4.98;95.02;99521.41;5137934;27;20535;-48
2021/01/20 02:31:38;;;;;;;33.90;17.80;;;;;;;4.97;94.81;99517.09;5137220;27;20464;-58
2021/01/20 02:34:08;;;;;;;25.40;13.00;;;;;;;4.93;94.62;99512.66;5137167;27;20547;-57
2021/01/20 02:36:36;;;;;;;33.40;18.70;;;;;;;4.96;94.24;99515.34;5136339;27;20598;-57
2021/01/20 02:39:03;;;;;;;32.07;15.07;;;;;;;4.91;94.58;99521.94;5137332;27;20480;-48
2021/01/20 02:41:30;;;;;;;16.00;9.00;;;;;;;4.89;94.63;99523.56;5135700;27;20941;-57
2021/01/20 02:43:59;;;;;;;18.13;9.30;;;;;;;4.86;95.06;99518.28;5137045;27;20448;-56
2021/01/20 02:46:26;;;;;;;19.77;11.00;;;;;;;4.83;94.85;99513.91;5135207;27;20500;-56
2021/01/20 02:48:54;;;;;;;39.10;18.33;;;;;;;4.79;94.75;99516.28;5136950;27;20920;-54
2021/01/20 02:51:25;;;;;;;38.63;18.77;;;;;;;4.78;95.24;99514.53;5135485;27;20476;-53
2021/01/20 02:53:52;;;;;;;32.47;15.50;;;;;;;4.75;95.37;99524.59;5137311;27;20920;-57
2021/01/20 02:56:19;;;;;;;32.60;15.50;;;;;;;4.70;95.42;99522.72;5135071;27;20558;-54
2021/01/20 02:58:47;;;;;;;22.77;11.53;;;;;;;4.66;95.39;99520.81;5137233;27;20539;-50
2021/01/20 03:01:15;;;;;;;32.87;15.60;;;;;;;4.58;95.46;99519.59;5135336;27;20526;-55
2021/01/20 03:03:44;;;;;;;28.10;14.00;;;;;;;4.58;95.47;99517.06;5136939;27;20479;-57
2021/01/20 03:06:11;;;;;;;20.30;10.60;;;;;;;4.58;95.05;99517.91;5134417;27;20929;-56
2021/01/20 03:08:38;;;;;;;30.70;16.03;;;;;;;4.60;95.12;99510.31;5136551;27;20476;-57
2021/01/20 03:11:06;;;;;;;42.77;22.23;;;;;;;4.58;94.94;99506.84;5135009;27;20500;-55
2021/01/20 03:13:35;;;;;;;21.80;10.77;;;;;;;4.54;94.58;99505.81;5137226;27;20822;-55
2021/01/20 03:16:03;;;;;;;33.50;16.00;;;;;;;4.52;95.13;99497.19;5134979;27;20508;-53
2021/01/20 03:18:30;;;;;;;29.13;10.73;;;;;;;4.45;95.31;99496.06;5136188;27;20922;-59
2021/01/20 03:20:57;;;;;;;25.67;9.47;;;;;;;4.43;95.52;99501.88;5135400;27;20956;-53
2021/01/20 03:23:24;;;;;;;23.87;11.23;;;;;;;4.41;95.25;99501.81;5136426;27;20557;-56
2021/01/20 03:25:51;;;;;;;43.87;19.70;;;;;;;4.41;95.22;99494.16;5134695;27;20475;-57
2021/01/20 03:28:18;;;;;;;20.57;10.27;;;;;;;4.35;95.61;99503.22;5136709;27;20857;-58
2021/01/20 03:30:45;;;;;;;36.43;14.63;;;;;;;4.35;95.54;99486.19;5131946;27;20476;-56
2021/01/20 03:33:12;;;;;;;48.57;17.80;;;;;;;4.33;95.47;99488.69;5136693;27;20539;-58
2021/01/20 03:35:39;;;;;;;36.53;16.97;;;;;;;4.30;95.56;99495.31;5134665;28;20483;-58
2021/01/20 03:38:05;;;;;;;20.73;10.00;;;;;;;4.30;95.43;99495.31;5136337;28;20567;-50
2021/01/20 03:40:33;;;;;;;28.93;10.33;;;;;;;4.31;95.29;99489.44;5134335;28;20510;-58
2021/01/20 03:42:59;;;;;;;33.83;16.43;;;;;;;4.32;95.55;99491.19;5136701;28;20860;-55
2021/01/20 03:45:26;;;;;;;25.20;10.20;;;;;;;4.29;95.66;99494.47;5134485;27;20490;-55
2021/01/20 03:47:53;;;;;;;29.93;15.30;;;;;;;4.30;95.33;99485.09;5136039;28;20457;-57
2021/01/20 03:50:20;;;;;;;34.47;17.20;;;;;;;4.29;95.40;99488.47;5133478;27;20950;-52
2021/01/20 03:52:46;;;;;;;27.70;13.77;;;;;;;4.27;95.21;99475.66;5136430;28;20531;-57
2021/01/20 03:55:13;;;;;;;30.67;12.33;;;;;;;4.23;95.32;99475.41;5135714;27;20559;-55
2021/01/20 03:57:40;;;;;;;22.67;12.63;;;;;;;4.23;95.43;99480.53;5140044;27;20571;-56
2021/01/20 04:00:08;;;;;;;19.57;10.17;;;;;;;4.21;95.66;99467.72;5139062;27;20853;-50
2021/01/20 04:02:34;;;;;;;17.53;9.70;;;;;;;4.21;95.74;99471.94;5139845;27;20452;-56
2021/01/20 04:05:01;;;;;;;38.30;16.97;;;;;;;4.15;96.09;99462.31;5138629;27;20502;-52
2021/01/20 04:07:28;;;;;;;42.23;17.70;;;;;;;4.14;96.09;99452.88;5140521;27;20579;-50
2021/01/20 04:09:55;;;;;;;42.77;12.57;;;;;;;4.11;96.25;99458.72;5138840;27;20480;-54
2021/01/20 04:12:21;;;;;;;40.17;15.20;;;;;;;4.15;95.91;99454.66;5140358;27;20791;-58
2021/01/20 04:14:49;;;;;;;24.17;11.43;;;;;;;4.15;95.95;99452.97;5138166;27;20575;-60
2021/01/20 04:17:15;;;;;;;29.57;12.23;;;;;;;4.15;96.20;99452.09;5139530;27;20559;-56
2021/01/20 04:19:42;;;;;;;30.60;15.73;;;;;;;4.12;95.57;99450.28;5138292;27;20479;-54
2021/01/20 04:22:09;;;;;;;33.40;13.03;;;;;;;4.13;95.73;99454.56;5140114;27;20484;-54
2021/01/20 04:24:35;;;;;;;22.23;8.87;;;;;;;4.15;95.58;99444.44;5137917;27;20471;-54
2021/01/20 04:27:02;;;;;;;16.27;8.17;;;;;;;4.14;95.70;99447.78;5139838;27;20482;-54
2021/01/20 04:29:29;;;;;;;25.80;10.33;;;;;;;4.15;95.70;99449.56;5138170;27;20539;-57
2021/01/20 04:31:57;;;;;;;19.77;8.37;;;;;;;4.13;95.32;99453.69;5139294;27;20459;-56
2021/01/20 04:34:23;;;;;;;28.60;14.60;;;;;;;4.17;95.00;99453.03;5137585;27;20494;-55
2021/01/20 04:36:50;;;;;;;34.03;10.83;;;;;;;4.18;94.69;99442.00;5139333;27;20486;-48
2021/01/20 04:39:17;;;;;;;18.40;8.80;;;;;;;4.17;94.83;99453.03;5137977;27;20487;-50
2021/01/20 04:41:43;;;;;;;21.50;10.53;;;;;;;4.18;94.77;99444.56;5139553;27;20487;-49
2021/01/20 04:44:11;;;;;;;16.00;7.73;;;;;;;4.18;94.77;99444.56;5137709;27;20769;-56
2021/01/20 04:46:40;;;;;;;24.20;11.13;;;;;;;4.19;94.40;99434.44;5138645;27;20864;-55
2021/01/20 04:49:09;;;;;;;22.70;11.63;;;;;;;4.21;94.28;99436.19;5139272;27;20494;-54
2021/01/20 04:51:37;;;;;;;24.40;8.53;;;;;;;4.22;94.25;99435.38;5138718;27;20842;-53
2021/01/20 04:54:05;;;;;;;29.10;16.20;;;;;;;4.18;94.05;99430.13;5139012;27;20505;-56
2021/01/20 04:56:32;;;;;;;16.27;7.97;;;;;;;4.24;93.59;99428.66;5136998;27;20777;-58
2021/01/20 04:58:59;;;;;;;28.43;16.43;;;;;;;4.25;93.23;99431.28;5138929;27;20476;-54
2021/01/20 05:01:26;;;;;;;18.03;8.67;;;;;;;4.26;92.61;99422.81;5138203;27;20478;-57
2021/01/20 05:03:53;;;;;;;21.53;8.60;;;;;;;4.28;92.39;99418.66;5139279;27;20738;-60
2021/01/20 05:06:21;;;;;;;33.00;17.57;;;;;;;4.27;92.63;99418.59;5136794;27;20469;-54
2021/01/20 05:08:47;;;;;;;25.53;15.00;;;;;;;4.25;92.45;99410.84;5139007;27;20456;-52
2021/01/20 05:11:16;;;;;;;14.77;8.80;;;;;;;4.27;92.22;99408.38;5137265;27;20588;-56
2021/01/20 05:13:44;;;;;;;25.27;13.53;;;;;;;4.27;92.21;99409.25;5138870;27;20457;-53
2021/01/20 05:16:24;;;;;;;22.70;11.80;;;;;;;4.30;91.91;99411.06;5136843;27;20480;-55
2021/01/20 05:18:51;;;;;;;20.40;9.47;;;;;;;4.29;91.96;99416.97;5138932;27;20476;-55
2021/01/20 05:21:18;;;;;;;17.53;9.90;;;;;;;4.27;91.60;99413.47;5137296;27;20769;-55
2021/01/20 05:23:46;;;;;;;15.17;9.10;;;;;;;4.30;91.72;99403.38;5138648;27;20484;-52
2021/01/20 05:26:12;;;;;;;13.30;7.53;;;;;;;4.27;91.73;99405.81;5136483;27;20476;-55
2021/01/20 05:28:39;;;;;;;24.47;11.97;;;;;;;4.25;91.25;99398.09;5139048;27;20505;-55
2021/01/20 05:31:06;;;;;;;17.03;9.57;;;;;;;4.26;91.19;99397.28;5137070;27;20480;-59
2021/01/20 05:33:37;;;;;;;19.03;8.90;;;;;;;4.27;90.76;99401.59;5138806;27;20458;-56
2021/01/20 05:36:06;;;;;;;17.33;9.10;;;;;;;4.28;90.79;99394.78;5136900;27;20476;-51
2021/01/20 05:38:33;;;;;;;19.17;11.40;;;;;;;4.27;90.99;99405.81;5138880;27;20532;-54
2021/01/20 05:41:14;;;;;;;15.70;8.53;;;;;;;4.28;90.34;99388.03;5137503;27;20511;-52
2021/01/20 05:43:41;;;;;;;15.20;6.30;;;;;;;4.27;90.63;99400.72;5138777;27;20497;-56
2021/01/20 05:46:08;;;;;;;11.23;6.03;;;;;;;4.30;89.84;99388.06;5136275;27;20485;-51
2021/01/20 05:48:45;;;;;;;12.53;6.40;;;;;;;4.28;90.30;99395.69;5138904;27;20510;-58
2021/01/20 05:51:12;;;;;;;11.10;6.37;;;;;;;4.31;89.61;99394.94;5137299;27;20535;-57
2021/01/20 05:53:52;;;;;;;19.90;8.40;;;;;;;4.30;90.14;99399.16;5138769;27;20488;-61
2021/01/20 05:56:27;;;;;;;14.83;6.17;;;;;;;4.29;89.88;99401.66;5136931;27;20479;-57
2021/01/20 05:58:54;;;;;;;12.27;6.87;;;;;;;4.28;90.15;99390.56;5138349;27;20780;-57
2021/01/20 06:01:20;;;;;;;23.23;9.87;;;;;;;4.31;89.96;99389.84;5136192;27;20506;-55
2021/01/20 06:03:48;;;;;;;19.83;9.40;;;;;;;4.29;90.31;99386.31;5137696;27;20500;-56
2021/01/20 06:06:15;;;;;;;17.37;8.97;;;;;;;4.26;90.13;99394.72;5136928;27;20485;-58
2021/01/20 06:08:42;;;;;;;17.20;8.37;;;;;;;4.30;89.57;99373.63;5138526;27;21060;-56
2021/01/20 06:11:09;;;;;;;9.83;4.97;;;;;;;4.28;89.85;99375.25;5135962;27;20546;-57
2021/01/20 06:13:37;;;;;;;20.93;9.17;;;;;;;4.29;90.05;99378.66;5138244;27;20905;-56
2021/01/20 06:16:14;;;;;;;19.83;9.03;;;;;;;4.24;90.44;99375.03;5135823;27;20570;-54
2021/01/20 06:18:49;;;;;;;17.77;9.90;;;;;;;4.22;90.52;99366.44;5137654;27;20472;-55
2021/01/20 06:21:17;;;;;;;21.53;9.33;;;;;;;4.18;90.76;99373.97;5136133;27;20554;-55
2021/01/20 06:23:51;;;;;;;8.37;4.90;;;;;;;4.16;90.78;99383.22;5137918;27;20828;-55
2021/01/20 06:26:19;;;;;;;10.57;5.30;;;;;;;4.16;91.40;99369.59;5135955;27;20562;-54
2021/01/20 06:28:49;;;;;;;12.40;5.83;;;;;;;4.10;91.80;99375.28;5137719;27;20458;-52
2021/01/20 06:31:16;;;;;;;15.03;6.03;;;;;;;4.09;91.72;99381.19;5136506;27;20472;-54
2021/01/20 06:33:43;;;;;;;13.20;6.10;;;;;;;4.08;91.86;99376.00;5137469;27;20527;-56
2021/01/20 06:36:09;;;;;;;6.90;3.63;;;;;;;4.08;92.06;99384.56;5135888;27;20486;-52
2021/01/20 06:38:38;;;;;;;10.07;5.20;;;;;;;4.09;91.58;99383.75;5137088;27;20480;-53
2021/01/20 06:41:09;;;;;;;11.23;5.20;;;;;;;4.09;91.69;99375.22;5136021;27;20913;-55
2021/01/20 06:43:38;;;;;;;8.67;4.13;;;;;;;4.09;91.59;99382.88;5137836;27;20543;-57
2021/01/20 06:46:26;;;;;;;14.93;7.87;;;;;;;4.09;91.60;99382.88;5130839;27;20476;-57
2021/01/20 06:49:10;;;;;;;10.90;5.27;;;;;;;4.10;91.39;99379.53;5137596;27;20485;-57
2021/01/20 06:51:37;;;;;;;10.03;5.07;;;;;;;4.07;91.25;99380.25;5137132;27;20534;-54
2021/01/20 06:54:10;;;;;;;11.47;5.20;;;;;;;4.09;91.42;99376.09;5136895;27;20835;-53
2021/01/20 06:56:38;;;;;;;9.83;5.10;;;;;;;4.08;91.49;99379.44;5136466;27;20456;-50
2021/01/20 06:59:19;;;;;;;15.63;7.80;;;;;;;4.13;91.17;99374.53;5137393;27;20566;-58
2021/01/20 07:02:09;;;;;;;9.30;4.20;;;;;;;4.09;91.34;99373.53;5136196;27;20468;-55
2021/01/20 07:04:53;;;;;;;11.63;5.13;;;;;;;4.08;91.59;99356.47;5114981;28;20540;-54
2021/01/20 07:08:01;;;;;;;21.73;9.87;;;;;;;4.10;91.21;99372.72;5116590;28;20477;-52
2021/01/20 07:11:07;;;;;;;18.10;9.80;;;;;;;4.11;91.57;99366.81;5114627;28;20867;-58
2021/01/20 07:13:39;;;;;;;23.73;7.73;;;;;;;4.06;91.47;99360.66;5116619;28;20453;-54
2021/01/20 07:16:08;;;;;;;15.03;5.33;;;;;;;4.07;91.57;99354.72;5114353;28;20508;-53
2021/01/20 07:18:39;;;;;;;10.23;5.77;;;;;;;4.10;91.27;99347.19;5116534;28;20534;-53
2021/01/20 07:21:07;;;;;;;15.97;8.53;;;;;;;4.13;90.80;99349.91;5114941;28;20538;-53
2021/01/20 07:23:34;;;;;;;9.67;4.03;;;;;;;4.15;90.71;99355.94;5116711;28;20535;-54
2021/01/20 07:26:03;;;;;;;5.57;3.03;;;;;;;4.13;90.98;99344.78;5114279;28;20564;-56
2021/01/20 07:28:30;;;;;;;9.80;5.17;;;;;;;4.15;90.97;99348.28;5115543;28;20510;-58
2021/01/20 07:31:08;;;;;;;13.60;4.93;;;;;;;4.12;91.62;99334.50;5114087;28;20556;-55
2021/01/20 07:33:35;;;;;;;10.63;6.03;;;;;;;4.07;92.22;99343.63;5116602;28;20448;-56
2021/01/20 07:36:14;;;;;;;14.80;8.63;;;;;;;4.11;92.34;99343.84;5114428;28;20922;-59
2021/01/20 07:38:40;;;;;;;14.33;5.53;;;;;;;4.06;92.56;99345.31;5116254;28;20765;-56
2021/01/20 07:41:17;;;;;;;26.90;9.60;;;;;;;4.08;92.49;99345.38;5114522;28;20651;-54
2021/01/20 07:43:45;;;;;;;8.00;4.40;;;;;;;4.10;92.43;99346.34;5116155;28;20890;-56
2021/01/20 07:46:20;;;;;;;21.33;7.03;;;;;;;4.14;91.94;99332.88;5113401;28;20487;-59
2021/01/20 07:48:47;;;;;;;8.60;5.07;;;;;;;4.21;91.89;99331.50;5116114;28;20459;-51
2021/01/20 07:51:16;;;;;;;8.73;4.30;;;;;;;4.19;91.88;99326.31;5114515;28;20500;-54
2021/01/20 07:53:55;;;;;;;16.43;5.70;;;;;;;4.23;91.47;99329.88;5116114;28;20540;-50
2021/01/20 07:56:22;;;;;;;9.70;4.03;;;;;;;4.27;91.26;99326.66;5114258;28;20964;-52
2021/01/20 07:58:49;;;;;;;13.43;6.27;;;;;;;4.32;90.67;99335.41;5115953;28;20572;-51
2021/01/20 08:01:24;;;;;;;11.10;4.87;;;;;;;4.36;90.78;99329.59;5114342;28;20556;-55
2021/01/20 08:03:51;;;;;;;12.17;5.93;;;;;;;4.42;90.54;99341.78;5115394;28;20547;-54
2021/01/20 08:06:19;;;;;;;12.60;4.20;;;;;;;4.43;90.28;99329.09;5114077;28;21009;-58
2021/01/20 08:08:53;;;;;;;10.27;5.80;;;;;;;4.46;90.06;99343.66;5115797;28;20456;-55
2021/01/20 08:11:20;;;;;;;12.67;6.87;;;;;;;4.50;90.07;99347.25;5114464;28;20527;-55
2021/01/20 08:13:48;;;;;;;18.50;6.87;;;;;;;4.54;89.86;99342.31;5129534;28;20459;-58
2021/01/20 08:16:14;;;;;;;14.27;5.60;;;;;;;4.59;89.41;99339.97;5124031;27;20487;-54
2021/01/20 08:18:44;;;;;;;8.43;3.13;;;;;;;4.61;88.97;99338.34;5136278;28;20456;-57
2021/01/20 08:21:11;;;;;;;12.23;6.47;;;;;;;4.61;89.48;99338.34;5134777;27;20796;-56
2021/01/20 08:23:48;;;;;;;17.63;6.50;;;;;;;4.68;88.85;99329.28;5136059;28;20879;-56
2021/01/20 08:26:15;;;;;;;6.90;3.47;;;;;;;4.78;88.38;99333.09;5133740;27;20479;-53
2021/01/20 08:29:09;;;;;;;4.63;2.53;;;;;;;4.81;87.92;99335.75;5136124;28;20468;-57
2021/01/20 08:31:37;;;;;;;6.80;3.50;;;;;;;4.87;87.48;99338.56;5135992;28;20549;-56
2021/01/20 08:34:20;;;;;;;9.60;4.23;;;;;;;4.90;87.45;99346.38;5136125;28;20789;-58
2021/01/20 08:36:57;;;;;;;10.10;4.37;;;;;;;4.95;87.20;99352.56;5135509;28;20551;-55
2021/01/20 08:39:26;;;;;;;9.77;4.37;;;;;;;4.98;87.41;99337.34;5133103;27;20479;-57
2021/01/20 08:42:11;;;;;;;3.77;2.40;;;;;;;4.97;87.62;99333.03;5138352;27;20827;-57
2021/01/20 08:44:38;;;;;;;6.63;3.03;;;;;;;5.04;87.00;99334.19;5138271;27;20467;-55
2021/01/20 08:47:06;;;;;;;12.60;5.73;;;;;;;5.09;86.44;99334.38;5139841;27;20945;-55
2021/01/20 08:49:32;;;;;;;7.40;4.10;;;;;;;5.16;86.36;99338.91;5138594;27;20792;-52
2021/01/20 08:51:59;;;;;;;11.10;5.13;;;;;;;5.17;86.14;99340.66;5139897;27;20458;-52
2021/01/20 08:54:26;;;;;;;10.37;5.00;;;;;;;5.23;85.61;99343.47;5137187;27;20945;-52
2021/01/20 08:57:17;;;;;;;3.43;1.83;;;;;;;5.26;85.65;99341.03;5139107;27;20510;-49
2021/01/20 08:59:51;;;;;;;5.70;3.00;;;;;;;5.31;85.55;99342.91;5137653;27;20480;-54
2021/01/20 09:02:18;;;;;;;8.67;4.23;;;;;;;5.31;85.25;99336.09;5139740;27;20456;-56
2021/01/20 09:04:45;;;;;;;5.40;2.20;;;;;;;5.35;85.01;99325.19;5138099;27;20856;-59
2021/01/20 09:07:12;;;;;;;6.70;3.00;;;;;;;5.41;84.85;99345.03;5139294;27;20563;-56
2021/01/20 09:09:39;;;;;;;4.90;2.43;;;;;;;5.46;84.26;99333.28;5138133;27;20472;-55
2021/01/20 09:12:07;;;;;;;6.37;3.90;;;;;;;5.49;84.23;99327.44;5139718;27;20543;-57
2021/01/20 09:14:33;;;;;;;16.63;3.93;;;;;;;5.55;83.52;99335.34;5137305;27;20548;-53
2021/01/20 09:17:00;;;;;;;7.53;3.93;;;;;;;5.62;83.31;99329.66;5138920;27;20476;-54
2021/01/20 09:19:27;;;;;;;6.67;3.50;;;;;;;5.67;82.72;99332.38;5137745;27;20487;-56
2021/01/20 09:21:54;;;;;;;7.00;3.50;;;;;;;5.76;82.39;99324.19;5139139;27;20866;-51
2021/01/20 09:24:20;;;;;;;8.23;3.93;;;;;;;5.71;83.02;99324.00;5137758;27;20768;-56
2021/01/20 09:26:51;;;;;;;11.07;3.77;;;;;;;5.75;82.33;99310.50;5139027;27;20485;-56
2021/01/20 09:29:18;;;;;;;6.40;2.57;;;;;;;5.80;82.07;99326.91;5137479;27;20790;-55
2021/01/20 09:31:45;;;;;;;5.00;2.50;;;;;;;5.85;82.04;99316.00;5138732;27;21024;-55
2021/01/20 09:34:12;;;;;;;5.40;2.33;;;;;;;5.90;81.28;99314.47;5137049;27;20509;-52
2021/01/20 09:36:38;;;;;;;4.43;1.97;;;;;;;5.95;81.09;99312.97;5138977;27;20555;-59
2021/01/20 09:39:05;;;;;;;6.67;2.43;;;;;;;6.01;80.80;99313.16;5139145;27;20476;-52
2021/01/20 09:41:31;;;;;;;3.33;1.70;;;;;;;6.04;80.88;99310.75;5137509;27;20487;-52
2021/01/20 09:43:59;;;;;;;2.93;1.40;;;;;;;6.08;80.43;99304.94;5136498;27;20472;-51
2021/01/20 09:46:26;;;;;;;6.90;3.40;;;;;;;6.15;79.98;99300.06;5135244;27;20483;-56
2021/01/20 09:48:53;;;;;;;5.83;2.70;;;;;;;6.16;79.63;99292.41;5137003;27;20465;-58
2021/01/20 09:51:19;;;;;;;4.90;2.40;;;;;;;6.23;79.32;99293.50;5134817;27;20862;-53
2021/01/20 09:53:46;;;;;;;9.23;2.90;;;;;;;6.25;79.28;99299.53;5135790;27;20457;-56
2021/01/20 09:56:12;;;;;;;4.10;2.27;;;;;;;6.28;78.86;99307.34;5134772;27;20501;-57
2021/01/20 09:58:45;;;;;;;5.13;2.17;;;;;;;6.31;79.55;99306.59;5137823;27;20493;-52
2021/01/20 10:01:12;;;;;;;5.30;3.10;;;;;;;6.34;78.22;99307.56;5137078;27;20551;-57
2021/01/20 10:03:39;;;;;;;6.80;2.67;;;;;;;6.38;78.62;99297.41;5138660;27;20488;-51
2021/01/20 10:06:05;;;;;;;5.80;2.53;;;;;;;6.41;77.95;99288.16;5136549;27;20509;-53
2021/01/20 10:08:32;;;;;;;7.23;2.97;;;;;;;6.47;77.42;99287.50;5138440;27;20489;-52
2021/01/20 10:10:59;;;;;;;5.83;3.37;;;;;;;6.52;77.07;99291.13;5136888;27;20815;-54
2021/01/20 10:13:25;;;;;;;4.17;1.67;;;;;;;6.56;77.65;99294.66;5137253;27;20457;-59
2021/01/20 10:15:52;;;;;;;5.27;2.97;;;;;;;6.62;77.45;99295.72;5135954;27;20478;-58
2021/01/20 10:18:20;;;;;;;3.87;1.77;;;;;;;6.64;76.13;99289.75;5138343;27;20454;-54
2021/01/20 10:20:50;;;;;;;4.00;2.00;;;;;;;6.67;75.95;99297.56;5136616;27;20517;-49
2021/01/20 10:23:17;;;;;;;4.13;1.90;;;;;;;6.68;75.81;99299.31;5137856;27;20457;-56
2021/01/20 10:25:45;;;;;;;7.27;2.70;;;;;;;6.70;76.40;99289.97;5135977;27;20564;-51
2021/01/20 10:28:12;;;;;;;5.27;2.63;;;;;;;6.70;75.24;99287.41;5137831;27;20460;-56
2021/01/20 10:30:38;;;;;;;3.83;2.00;;;;;;;6.69;76.16;99299.38;5136380;27;20503;-57
2021/01/20 10:33:05;;;;;;;6.20;2.70;;;;;;;6.69;76.01;99288.25;5137527;27;20539;-58
2021/01/20 10:35:33;;;;;;;6.67;2.93;;;;;;;6.62;77.67;99287.19;5136102;27;20914;-55
2021/01/20 10:37:59;;;;;;;3.87;2.00;;;;;;;6.44;78.63;99290.84;5137717;27;20483;-53
2021/01/20 10:40:26;;;;;;;3.40;1.40;;;;;;;6.29;79.75;99291.16;5135757;27;20880;-56
2021/01/20 10:42:53;;;;;;;5.70;3.07;;;;;;;6.27;80.69;99285.13;5137741;27;20554;-54
2021/01/20 10:45:19;;;;;;;6.60;3.40;;;;;;;6.24;80.63;99274.75;5135661;27;20474;-56
2021/01/20 10:47:46;;;;;;;4.53;2.20;;;;;;;6.27;79.42;99285.13;5137551;27;20460;-55
2021/01/20 10:50:13;;;;;;;4.00;2.00;;;;;;;6.29;79.93;99280.91;5135743;27;20476;-51
2021/01/20 10:52:41;;;;;;;10.27;3.00;;;;;;;6.37;78.64;99280.31;5137378;27;20812;-52
2021/01/20 10:55:08;;;;;;;2.90;1.93;;;;;;;6.39;77.36;99288.91;5135477;27;20556;-55
2021/01/20 10:57:35;;;;;;;3.63;1.63;;;;;;;6.40;78.37;99281.28;5137482;27;20766;-59
2021/01/20 11:00:01;;;;;;;6.70;1.90;;;;;;;6.45;77.82;99276.31;5135411;27;20516;-52
2021/01/20 11:02:30;;;;;;;3.63;2.07;;;;;;;6.46;77.67;99275.53;5136741;27;20862;-58
2021/01/20 11:04:58;;;;;;;5.97;2.30;;;;;;;6.50;77.74;99276.50;5135864;27;20486;-56
2021/01/20 11:07:25;;;;;;;4.30;2.20;;;;;;;6.50;77.06;99281.63;5137454;27;20473;-50
2021/01/20 11:09:53;;;;;;;3.13;1.30;;;;;;;6.49;76.96;99265.38;5134947;27;20481;-55
2021/01/20 11:12:20;;;;;;;5.00;2.13;;;;;;;6.57;76.19;99268.19;5137087;27;20887;-56
2021/01/20 11:14:47;;;;;;;3.97;1.83;;;;;;;6.57;76.65;99273.31;5135313;27;20477;-57
2021/01/20 11:17:13;;;;;;;3.83;2.07;;;;;;;6.55;76.73;99265.56;5136823;27;20622;-60
2021/01/20 11:19:40;;;;;;;6.57;2.67;;;;;;;6.62;76.44;99275.22;5135710;27;20825;-58
2021/01/20 11:22:09;;;;;;;2.70;1.20;;;;;;;6.63;76.37;99273.53;5136854;27;20461;-54
2021/01/20 11:24:36;;;;;;;4.77;2.40;;;;;;;6.67;76.30;99265.09;5135025;27;20496;-56
2021/01/20 11:27:04;;;;;;;4.60;1.87;;;;;;;6.66;76.60;99263.38;5136719;27;20477;-56
2021/01/20 11:29:31;;;;;;;4.67;2.77;;;;;;;6.69;76.74;99266.06;5135094;27;20476;-53
2021/01/20 11:31:57;;;;;;;4.27;1.77;;;;;;;6.71;75.86;99263.50;5136815;27;20550;-55
2021/01/20 11:34:24;;;;;;;4.77;1.90;;;;;;;6.74;76.10;99256.84;5134959;27;20545;-57
2021/01/20 11:36:51;;;;;;;4.90;2.03;;;;;;;6.79;76.83;99262.09;5136620;27;20492;-56
2021/01/20 11:39:17;;;;;;;6.87;2.63;;;;;;;6.82;76.17;99248.50;5135109;27;20931;-57
2021/01/20 11:41:44;;;;;;;6.20;2.10;;;;;;;6.84;75.40;99244.28;5135193;28;20481;-56